EDT,Max TemperatureF,Mean TemperatureF,Min TemperatureF,Max Dew PointF,MeanDew PointF,Min DewpointF,Max Humidity, Mean Humidity, Min Humidity, Max Sea Level PressureIn, Mean Sea Level PressureIn, Min Sea Level PressureIn, Max VisibilityMiles, Mean VisibilityMiles, Min VisibilityMiles, Max Wind SpeedMPH, Mean Wind SpeedMPH, Max Gust SpeedMPH,PrecipitationIn, CloudCover, Events, WindDirDegrees
2013-3-1,36,34,32,31,28,25,96,80,70,29.95,29.93,29.89,10,10,4,7,3,9,0.00,8,Snow,251
2013-3-2,36,32,28,31,27,18,99,82,59,30.00,29.92,29.88,10,7,1,10,2,20,0.00,8,Snow,353
2013-3-3,34,28,22,21,16,11,84,61,48,30.05,30.00,29.96,10,9,3,16,6,24,0.00,4,Snow,24
2013-3-4,52,34,17,32,22,12,93,64,29,30.13,30.07,30.00,10,10,7,9,1,,0.00,0,,260
2013-3-5,52,42,32,50,38,25,99,90,68,30.06,29.86,29.64,10,6,1,23,3,33,0.70,8,Rain-Snow,265
2013-3-6,33,30,27,29,24,19,94,77,63,30.17,30.00,29.82,10,7,0,16,7,26,0.00,8,Snow,297
2013-3-7,52,38,25,34,27,23,94,71,44,30.26,30.20,30.13,10,10,10,12,4,,0.00,1,,353
2013-3-8,58,41,24,32,23,10,99,66,17,30.32,30.26,30.20,10,8,0,13,2,18,0.00,2,Fog,333
2013-3-9,65,45,25,36,29,23,94,60,26,30.30,30.24,30.17,10,10,10,13,2,,0.00,0,,259
2013-3-10,67,50,35,42,33,29,92,55,26,30.22,30.15,30.08,10,10,10,10,2,21,0.00,1,,223
2013-3-11,58,54,49,50,48,41,99,79,54,30.08,29.93,29.80,10,9,2,16,7,28,0.31,8,Rain,204
2013-3-12,55,44,32,50,35,26,97,73,39,30.10,29.95,29.82,10,9,2,13,5,20,0.00,3,Rain,315
2013-3-13,44,34,25,30,23,16,97,67,39,30.24,30.14,30.07,10,10,7,23,4,31,0.00,4,,298
2013-3-14,49,37,25,24,16,10,72,46,21,30.30,30.25,30.19,10,10,10,12,5,18,0.00,3,,86
2013-3-15,68,47,26,43,32,20,86,60,33,30.23,30.10,29.97,10,10,10,20,3,28,0.00,2,,252
2013-3-16,72,56,39,47,43,38,97,66,38,29.98,29.92,29.85,10,10,10,23,6,31,0.00,3,,254
2013-3-17,69,54,39,50,44,39,97,71,39,30.01,29.95,29.89,10,10,10,16,2,21,0.00,3,,237
2013-3-18,56,48,40,50,46,40,100,89,71,29.98,29.91,29.83,10,9,0,22,3,28,0.12,6,Fog-Rain,227
2013-3-19,58,46,33,46,30,16,100,59,22,30.11,30.01,29.89,10,8,0,14,3,22,0.00,2,Fog-Rain,25
2013-3-20,53,40,28,33,22,7,89,54,21,30.11,30.01,29.88,10,10,10,21,3,32,0.00,4,Rain-Snow,260
2013-3-21,40,31,22,28,14,4,85,50,30,29.96,29.90,29.88,10,10,10,16,5,17,0.00,1,,11
2013-3-22,44,33,22,32,20,12,87,60,34,30.04,29.99,29.95,10,10,10,7,1,,0.00,6,,272
2013-3-23,56,47,38,48,41,31,97,84,67,30.01,29.92,29.77,10,10,5,6,1,,0.01,7,Rain,239
2013-3-24,57,48,39,51,46,30,99,88,68,29.85,29.60,29.46,10,8,2,20,4,32,0.24,8,Rain,250
2013-3-25,38,34,29,30,25,22,92,75,67,29.99,29.79,29.62,10,7,0,26,13,33,0.00,8,Snow,255
2013-3-26,38,32,27,28,25,21,95,76,56,30.23,30.08,29.97,10,8,2,14,4,18,0.00,8,Snow,272
2013-3-27,48,38,28,25,22,18,83,57,32,30.29,30.24,30.20,10,10,10,14,5,17,0.00,3,,51
2013-3-28,54,38,21,28,22,12,94,61,23,30.31,30.27,30.22,10,10,10,13,2,22,0.00,0,,23
2013-3-29,46,35,24,42,31,22,96,81,54,30.34,30.29,30.22,10,10,10,7,1,,0.00,5,Rain,61
2013-3-30,64,52,40,50,41,37,99,76,37,30.22,30.13,30.02,10,8,4,13,2,16,0.15,6,Rain,269
2013-3-31,59,54,49,54,52,49,99,92,74,30.03,29.92,29.88,10,8,2,10,2,,0.13,8,Rain,249